CMA CGM Aristote — MRPN4 — position and weather

sailwx.info

Track history (hours):
 
Tides and Currents Weather Stations Pressure Air Temp Water Temp Dewpoint Dewpoint Depression Visibility Wind Speed Wind Dir Waves Ship Positions

CMA CGM Aristote

Last reported at 2017-Aug-17 06:26 UTC. Time now 2017-Aug-22 03:30 UTC.
Position N 05°01' E 000°05'.

Length 170 m; draft 7 m.

Type: Cargo ship. MMSI: 235054581.

Date/timePositionNaut miles runAvg speedWind from/ knotsBaromVisibWave heightAir tempDewpointWater temp
2017-Aug-17 06:26N 05°01' E 000°05'1912.6
2017-Aug-17 04:58N 05°07' E 000°23'26 0.6
2017-Aug-15 11:22N 05°30' E 000°35'513.0
2017-Aug-15 11:00N 05°31' E 000°30'612.9
2017-Aug-15 10:30N 05°32' E 000°24'713.1
2017-Aug-15 10:00N 05°33' E 000°17'612.9
2017-Aug-15 09:30N 05°33' E 000°11'713.5
2017-Aug-15 09:00N 05°36' E 000°04'4 7.9
2017-Aug-15 08:30N 05°38' E 000°01'0 0.6
2017-Aug-15 07:59N 05°37' E 000°00'0 0.0
2017-Aug-15 07:23N 05°37' E 000°00'0 0.0
2017-Aug-15 06:59N 05°37' E 000°00'0 0.0
2017-Aug-15 06:29N 05°37' E 000°00'0 0.0
2017-Aug-15 05:59N 05°37' E 000°00'0 0.0
2017-Aug-15 05:29N 05°37' E 000°00'0 0.0
2017-Aug-15 04:59N 05°37' E 000°00'0 0.0
2017-Aug-15 04:29N 05°37' E 000°00'0 0.0
2017-Aug-15 03:59N 05°37' E 000°00'0 0.0
2017-Aug-15 03:29N 05°37' E 000°00'0 0.0
2017-Aug-15 02:59N 05°37' E 000°00'0 0.0
2017-Aug-15 02:29N 05°37' E 000°00'0 0.0
2017-Aug-15 01:59N 05°37' E 000°00'0 0.0
2017-Aug-15 01:29N 05°37' E 000°00'0 0.0
2017-Aug-15 00:59N 05°37' E 000°00'0 0.0
2017-Aug-15 00:29N 05°37' E 000°00'0 0.0
2017-Aug-14 23:59N 05°37' E 000°00'0 0.0
2017-Aug-14 23:29N 05°37' E 000°00'0 0.0
2017-Aug-14 22:59N 05°37' E 000°00'0 0.0
2017-Aug-14 22:29N 05°37' E 000°00'0 0.0
2017-Aug-14 21:59N 05°37' E 000°00'0 0.0
2017-Aug-14 21:29N 05°37' E 000°00'0 0.0
2017-Aug-14 20:59N 05°37' E 000°00'0 0.0
2017-Aug-14 20:29N 05°37' E 000°00'0 0.0
2017-Aug-14 19:59N 05°37' E 000°00'0 0.2
2017-Aug-14 19:30N 05°37' E 000°01'2 3.8
2017-Aug-14 19:00N 05°38' E 000°02'1 2.3
2017-Aug-14 18:30N 05°37' E 000°03'4 7.4
2017-Aug-14 18:00N 05°33' E 000°03'2 3.5
2017-Aug-14 17:29N 05°33' E 000°01'0 0.0
2017-Aug-14 16:59N 05°33' E 000°01'0 0.0
2017-Aug-14 16:30N 05°33' E 000°01'0 0.0
2017-Aug-14 16:00N 05°33' E 000°01'0 0.0
2017-Aug-14 15:30N 05°33' E 000°01'0 0.0
2017-Aug-14 14:59N 05°33' E 000°01'0 0.0
2017-Aug-14 14:26N 05°33' E 000°01'0 0.0
2017-Aug-14 13:59N 05°33' E 000°01'0 0.0
2017-Aug-14 13:29N 05°33' E 000°01'0 0.0
2017-Aug-14 12:59N 05°33' E 000°01'0 0.0
2017-Aug-14 12:29N 05°33' E 000°01'0 0.0
2017-Aug-14 11:59N 05°33' E 000°01'0 0.0
2017-Aug-14 11:29N 05°33' E 000°01'0 0.2
2017-Aug-14 11:00N 05°33' E 000°01'3 6.4
2017-Aug-14 10:30N 05°30' E 000°01'612.9
2017-Aug-14 10:00N 05°25' W 000°02'612.6
2017-Aug-14 09:30N 05°18' W 000°02'510.1
2017-Aug-14 09:00N 05°14' E 000°01'0 0.7
2017-Aug-14 08:30N 05°14' E 000°01'0 0.5
2017-Aug-14 08:00N 05°14' E 000°01'0 0.6
2017-Aug-14 07:30N 05°13' E 000°01'0 0.5
2017-Aug-14 07:00N 05°13' E 000°01'0 0.5
2017-Aug-14 06:30N 05°13' E 000°01'0 0.7
2017-Aug-14 06:00N 05°13' E 000°01'0 0.8
2017-Aug-14 05:30N 05°12' E 000°01'0 0.8
2017-Aug-14 05:00N 05°12' E 000°02'0 0.8
2017-Aug-14 04:30N 05°11' E 000°02'0 1.0
2017-Aug-14 04:00N 05°11' E 000°02'0 0.7
2017-Aug-14 03:26N 05°11' E 000°02'4 9.3
2017-Aug-14 03:00N 05°15' E 000°01'510.6
2017-Aug-14 02:30N 05°20' W 000°01'2 4.9
2017-Aug-14 02:00N 05°17' W 000°02'713.2
2017-Aug-14 01:30N 05°13' W 000°08'813.4
2017-Aug-14 00:55N 05°07' W 000°13'813.6
2017-Aug-14 00:19N 05°01' W 000°19'  
2017-Aug-09 00:37N 08°09' W 014°26'414.9
2017-Aug-09 00:23N 08°11' W 014°29'615.2
2017-Aug-09 00:00N 08°15' W 014°33'1615.1
2017-Aug-08 22:57N 08°26' W 014°45'1015.1
2017-Aug-08 22:17N 08°32' W 014°53'  
Track history (hours):
 
Tides and Currents Weather Stations Pressure Air Temp Water Temp Dewpoint Dewpoint Depression Visibility Wind Speed Wind Dir Waves Ship Positions

CMA CGM Aristote

Last reported at 2017-Aug-17 06:26 UTC. Time now 2017-Aug-22 03:30 UTC.
Position N 05°01' E 000°05'.

Length 170 m; draft 7 m.

Type: Cargo ship. MMSI: 235054581.

Date/timePositionNaut miles runAvg speedWind from/ knotsBaromVisibWave heightAir tempDewpointWater temp
2017-Aug-17 06:26N 05°01' E 000°05'1912.6
2017-Aug-17 04:58N 05°07' E 000°23'26 0.6
2017-Aug-15 11:22N 05°30' E 000°35'513.0
2017-Aug-15 11:00N 05°31' E 000°30'612.9
2017-Aug-15 10:30N 05°32' E 000°24'713.1
2017-Aug-15 10:00N 05°33' E 000°17'612.9
2017-Aug-15 09:30N 05°33' E 000°11'713.5
2017-Aug-15 09:00N 05°36' E 000°04'4 7.9
2017-Aug-15 08:30N 05°38' E 000°01'0 0.6
2017-Aug-15 07:59N 05°37' E 000°00'0 0.0
2017-Aug-15 07:23N 05°37' E 000°00'0 0.0
2017-Aug-15 06:59N 05°37' E 000°00'0 0.0
2017-Aug-15 06:29N 05°37' E 000°00'0 0.0
2017-Aug-15 05:59N 05°37' E 000°00'0 0.0
2017-Aug-15 05:29N 05°37' E 000°00'0 0.0
2017-Aug-15 04:59N 05°37' E 000°00'0 0.0
2017-Aug-15 04:29N 05°37' E 000°00'0 0.0
2017-Aug-15 03:59N 05°37' E 000°00'0 0.0
2017-Aug-15 03:29N 05°37' E 000°00'0 0.0
2017-Aug-15 02:59N 05°37' E 000°00'0 0.0
2017-Aug-15 02:29N 05°37' E 000°00'0 0.0
2017-Aug-15 01:59N 05°37' E 000°00'0 0.0
2017-Aug-15 01:29N 05°37' E 000°00'0 0.0
2017-Aug-15 00:59N 05°37' E 000°00'0 0.0
2017-Aug-15 00:29N 05°37' E 000°00'0 0.0
2017-Aug-14 23:59N 05°37' E 000°00'0 0.0
2017-Aug-14 23:29N 05°37' E 000°00'0 0.0
2017-Aug-14 22:59N 05°37' E 000°00'0 0.0
2017-Aug-14 22:29N 05°37' E 000°00'0 0.0
2017-Aug-14 21:59N 05°37' E 000°00'0 0.0
2017-Aug-14 21:29N 05°37' E 000°00'0 0.0
2017-Aug-14 20:59N 05°37' E 000°00'0 0.0
2017-Aug-14 20:29N 05°37' E 000°00'0 0.0
2017-Aug-14 19:59N 05°37' E 000°00'0 0.2
2017-Aug-14 19:30N 05°37' E 000°01'2 3.8
2017-Aug-14 19:00N 05°38' E 000°02'1 2.3
2017-Aug-14 18:30N 05°37' E 000°03'4 7.4
2017-Aug-14 18:00N 05°33' E 000°03'2 3.5
2017-Aug-14 17:29N 05°33' E 000°01'0 0.0
2017-Aug-14 16:59N 05°33' E 000°01'0 0.0
2017-Aug-14 16:30N 05°33' E 000°01'0 0.0
2017-Aug-14 16:00N 05°33' E 000°01'0 0.0
2017-Aug-14 15:30N 05°33' E 000°01'0 0.0
2017-Aug-14 14:59N 05°33' E 000°01'0 0.0
2017-Aug-14 14:26N 05°33' E 000°01'0 0.0
2017-Aug-14 13:59N 05°33' E 000°01'0 0.0
2017-Aug-14 13:29N 05°33' E 000°01'0 0.0
2017-Aug-14 12:59N 05°33' E 000°01'0 0.0
2017-Aug-14 12:29N 05°33' E 000°01'0 0.0
2017-Aug-14 11:59N 05°33' E 000°01'0 0.0
2017-Aug-14 11:29N 05°33' E 000°01'0 0.2
2017-Aug-14 11:00N 05°33' E 000°01'3 6.4
2017-Aug-14 10:30N 05°30' E 000°01'612.9
2017-Aug-14 10:00N 05°25' W 000°02'612.6
2017-Aug-14 09:30N 05°18' W 000°02'510.1
2017-Aug-14 09:00N 05°14' E 000°01'0 0.7
2017-Aug-14 08:30N 05°14' E 000°01'0 0.5
2017-Aug-14 08:00N 05°14' E 000°01'0 0.6
2017-Aug-14 07:30N 05°13' E 000°01'0 0.5
2017-Aug-14 07:00N 05°13' E 000°01'0 0.5
2017-Aug-14 06:30N 05°13' E 000°01'0 0.7
2017-Aug-14 06:00N 05°13' E 000°01'0 0.8
2017-Aug-14 05:30N 05°12' E 000°01'0 0.8
2017-Aug-14 05:00N 05°12' E 000°02'0 0.8
2017-Aug-14 04:30N 05°11' E 000°02'0 1.0
2017-Aug-14 04:00N 05°11' E 000°02'0 0.7
2017-Aug-14 03:26N 05°11' E 000°02'4 9.3
2017-Aug-14 03:00N 05°15' E 000°01'510.6
2017-Aug-14 02:30N 05°20' W 000°01'2 4.9
2017-Aug-14 02:00N 05°17' W 000°02'713.2
2017-Aug-14 01:30N 05°13' W 000°08'813.4
2017-Aug-14 00:55N 05°07' W 000°13'813.6
2017-Aug-14 00:19N 05°01' W 000°19'  
2017-Aug-09 00:37N 08°09' W 014°26'414.9
2017-Aug-09 00:23N 08°11' W 014°29'615.2
2017-Aug-09 00:00N 08°15' W 014°33'1615.1
2017-Aug-08 22:57N 08°26' W 014°45'1015.1
2017-Aug-08 22:17N 08°32' W 014°53'  

Dump ship's entire track history